sensor_id;sensor_type;location;lat;lon;timestamp;P1;durP1;ratioP1;P2;durP2;ratioP2
52320;SDS011;38261;54.090;13.382;2023-04-01T00:00:31;4.87;;;2.87;;
52320;SDS011;38261;54.090;13.382;2023-04-01T00:01:54;5.20;;;2.23;;
52320;SDS011;38261;54.090;13.382;2023-04-01T00:03:16;4.37;;;2.30;;
52320;SDS011;38261;54.090;13.382;2023-04-01T00:04:39;5.30;;;2.47;;
52320;SDS011;38261;54.090;13.382;2023-04-01T00:06:01;3.73;;;2.47;;
52320;SDS011;38261;54.090;13.382;2023-04-01T00:07:23;6.20;;;2.20;;
52320;SDS011;38261;54.090;13.382;2023-04-01T00:08:51;2.77;;;2.57;;
52320;SDS011;38261;54.090;13.382;2023-04-01T00:10:15;4.47;;;2.43;;
52320;SDS011;38261;54.090;13.382;2023-04-01T00:11:37;7.53;;;3.20;;
52320;SDS011;38261;54.090;13.382;2023-04-01T00:13:00;10.90;;;3.13;;
52320;SDS011;38261;54.090;13.382;2023-04-01T00:14:22;6.83;;;2.83;;
52320;SDS011;38261;54.090;13.382;2023-04-01T00:15:44;5.33;;;2.60;;
52320;SDS011;38261;54.090;13.382;2023-04-01T00:17:06;3.80;;;3.10;;
52320;SDS011;38261;54.090;13.382;2023-04-01T00:18:29;8.70;;;3.43;;
52320;SDS011;38261;54.090;13.382;2023-04-01T00:19:52;10.67;;;3.20;;
52320;SDS011;38261;54.090;13.382;2023-04-01T00:21:17;10.27;;;3.33;;
52320;SDS011;38261;54.090;13.382;2023-04-01T00:22:40;5.90;;;3.27;;
52320;SDS011;38261;54.090;13.382;2023-04-01T00:24:02;4.77;;;3.10;;
52320;SDS011;38261;54.090;13.382;2023-04-01T00:25:24;4.73;;;3.00;;
52320;SDS011;38261;54.090;13.382;2023-04-01T00:26:46;11.83;;;3.60;;
52320;SDS011;38261;54.090;13.382;2023-04-01T00:28:09;6.17;;;3.83;;
52320;SDS011;38261;54.090;13.382;2023-04-01T00:29:31;10.20;;;3.60;;
52320;SDS011;38261;54.090;13.382;2023-04-01T00:30:54;6.63;;;3.60;;
52320;SDS011;38261;54.090;13.382;2023-04-01T00:32:16;10.13;;;2.90;;
52320;SDS011;38261;54.090;13.382;2023-04-01T00:33:38;4.30;;;3.07;;
52320;SDS011;38261;54.090;13.382;2023-04-01T00:35:02;7.57;;;3.87;;
52320;SDS011;38261;54.090;13.382;2023-04-01T00:36:25;9.80;;;3.10;;
52320;SDS011;38261;54.090;13.382;2023-04-01T00:37:47;7.10;;;2.90;;
52320;SDS011;38261;54.090;13.382;2023-04-01T00:39:09;3.73;;;2.70;;
52320;SDS011;38261;54.090;13.382;2023-04-01T00:40:36;7.37;;;3.40;;
52320;SDS011;38261;54.090;13.382;2023-04-01T00:42:00;7.20;;;3.50;;
52320;SDS011;38261;54.090;13.382;2023-04-01T00:43:24;6.03;;;3.23;;
52320;SDS011;38261;54.090;13.382;2023-04-01T00:44:53;8.57;;;2.73;;
52320;SDS011;38261;54.090;13.382;2023-04-01T00:46:16;10.30;;;3.00;;
52320;SDS011;38261;54.090;13.382;2023-04-01T00:47:38;4.87;;;2.73;;
52320;SDS011;38261;54.090;13.382;2023-04-01T00:49:01;7.30;;;2.97;;
52320;SDS011;38261;54.090;13.382;2023-04-01T00:50:23;5.57;;;2.70;;
52320;SDS011;38261;54.090;13.382;2023-04-01T00:51:47;5.53;;;2.77;;
52320;SDS011;38261;54.090;13.382;2023-04-01T00:53:11;7.23;;;2.90;;
52320;SDS011;38261;54.090;13.382;2023-04-01T00:54:34;3.50;;;2.30;;
52320;SDS011;38261;54.090;13.382;2023-04-01T00:56:03;6.00;;;3.80;;
52320;SDS011;38261;54.090;13.382;2023-04-01T00:57:32;5.33;;;2.57;;
52320;SDS011;38261;54.090;13.382;2023-04-01T00:59:02;10.33;;;2.90;;
52320;SDS011;38261;54.090;13.382;2023-04-01T01:00:29;4.50;;;2.90;;
52320;SDS011;38261;54.090;13.382;2023-04-01T01:01:53;6.13;;;3.10;;
52320;SDS011;38261;54.090;13.382;2023-04-01T01:03:15;8.80;;;3.33;;
52320;SDS011;38261;54.090;13.382;2023-04-01T01:04:37;6.57;;;3.20;;
52320;SDS011;38261;54.090;13.382;2023-04-01T01:09:35;6.30;;;3.53;;
52320;SDS011;38261;54.090;13.382;2023-04-01T01:11:22;8.70;;;3.87;;
52320;SDS011;38261;54.090;13.382;2023-04-01T01:14:54;8.13;;;3.67;;
52320;SDS011;38261;54.090;13.382;2023-04-01T01:16:22;5.00;;;3.13;;
52320;SDS011;38261;54.090;13.382;2023-04-01T01:21:16;9.63;;;3.30;;
52320;SDS011;38261;54.090;13.382;2023-04-01T01:23:08;10.23;;;3.33;;
52320;SDS011;38261;54.090;13.382;2023-04-01T01:33:21;8.60;;;4.50;;
52320;SDS011;38261;54.090;13.382;2023-04-01T01:37:00;7.10;;;4.10;;
52320;SDS011;38261;54.090;13.382;2023-04-01T01:38:27;7.53;;;4.20;;
52320;SDS011;38261;54.090;13.382;2023-04-01T01:39:54;11.23;;;5.00;;
52320;SDS011;38261;54.090;13.382;2023-04-01T01:41:19;10.23;;;4.20;;
52320;SDS011;38261;54.090;13.382;2023-04-01T01:42:45;11.03;;;4.80;;
52320;SDS011;38261;54.090;13.382;2023-04-01T01:44:13;14.40;;;4.27;;
52320;SDS011;38261;54.090;13.382;2023-04-01T01:45:39;6.17;;;3.87;;
52320;SDS011;38261;54.090;13.382;2023-04-01T01:47:05;9.90;;;4.53;;
52320;SDS011;38261;54.090;13.382;2023-04-01T01:48:27;8.03;;;3.80;;
52320;SDS011;38261;54.090;13.382;2023-04-01T01:49:52;9.43;;;3.83;;
52320;SDS011;38261;54.090;13.382;2023-04-01T01:51:16;12.50;;;3.67;;
52320;SDS011;38261;54.090;13.382;2023-04-01T01:52:40;6.50;;;4.33;;
52320;SDS011;38261;54.090;13.382;2023-04-01T01:54:02;7.20;;;3.80;;
52320;SDS011;38261;54.090;13.382;2023-04-01T01:57:00;7.63;;;3.87;;
52320;SDS011;38261;54.090;13.382;2023-04-01T02:00:04;8.63;;;5.00;;
52320;SDS011;38261;54.090;13.382;2023-04-01T02:01:35;12.30;;;5.57;;
52320;SDS011;38261;54.090;13.382;2023-04-01T02:03:00;14.53;;;5.00;;
52320;SDS011;38261;54.090;13.382;2023-04-01T02:04:23;9.87;;;4.60;;
52320;SDS011;38261;54.090;13.382;2023-04-01T02:05:47;11.23;;;4.90;;
52320;SDS011;38261;54.090;13.382;2023-04-01T02:07:12;7.90;;;4.70;;
52320;SDS011;38261;54.090;13.382;2023-04-01T02:08:40;8.50;;;4.73;;
52320;SDS011;38261;54.090;13.382;2023-04-01T02:10:07;11.73;;;5.43;;
52320;SDS011;38261;54.090;13.382;2023-04-01T02:11:32;8.27;;;3.87;;
52320;SDS011;38261;54.090;13.382;2023-04-01T02:12:59;8.00;;;4.43;;
52320;SDS011;38261;54.090;13.382;2023-04-01T02:15:13;6.17;;;4.00;;
52320;SDS011;38261;54.090;13.382;2023-04-01T02:16:29;9.27;;;5.40;;
52320;SDS011;38261;54.090;13.382;2023-04-01T02:17:56;11.80;;;5.50;;
52320;SDS011;38261;54.090;13.382;2023-04-01T02:19:19;15.03;;;5.30;;
52320;SDS011;38261;54.090;13.382;2023-04-01T02:20:44;5.90;;;4.47;;
52320;SDS011;38261;54.090;13.382;2023-04-01T02:22:08;9.17;;;3.87;;
52320;SDS011;38261;54.090;13.382;2023-04-01T02:23:34;13.23;;;4.97;;
52320;SDS011;38261;54.090;13.382;2023-04-01T02:24:58;9.80;;;4.53;;
52320;SDS011;38261;54.090;13.382;2023-04-01T02:26:26;6.23;;;4.27;;
52320;SDS011;38261;54.090;13.382;2023-04-01T02:27:48;14.30;;;4.83;;
52320;SDS011;38261;54.090;13.382;2023-04-01T02:29:11;10.27;;;4.57;;
52320;SDS011;38261;54.090;13.382;2023-04-01T02:30:34;12.37;;;4.50;;
52320;SDS011;38261;54.090;13.382;2023-04-01T02:31:57;7.30;;;4.30;;
52320;SDS011;38261;54.090;13.382;2023-04-01T02:33:21;7.57;;;4.90;;
52320;SDS011;38261;54.090;13.382;2023-04-01T02:34:43;9.97;;;4.90;;
52320;SDS011;38261;54.090;13.382;2023-04-01T02:36:06;8.53;;;4.93;;
52320;SDS011;38261;54.090;13.382;2023-04-01T02:37:32;8.70;;;4.70;;
52320;SDS011;38261;54.090;13.382;2023-04-01T02:38:57;19.07;;;5.47;;
52320;SDS011;38261;54.090;13.382;2023-04-01T02:40:24;10.57;;;4.70;;
52320;SDS011;38261;54.090;13.382;2023-04-01T02:41:46;8.50;;;4.47;;
52320;SDS011;38261;54.090;13.382;2023-04-01T02:43:08;11.13;;;4.90;;
52320;SDS011;38261;54.090;13.382;2023-04-01T02:44:30;7.70;;;4.30;;
52320;SDS011;38261;54.090;13.382;2023-04-01T02:45:52;14.53;;;5.00;;
52320;SDS011;38261;54.090;13.382;2023-04-01T02:47:15;12.17;;;5.27;;
52320;SDS011;38261;54.090;13.382;2023-04-01T02:48:37;10.13;;;4.80;;
52320;SDS011;38261;54.090;13.382;2023-04-01T02:49:59;8.20;;;4.60;;
52320;SDS011;38261;54.090;13.382;2023-04-01T02:51:21;12.07;;;4.40;;
52320;SDS011;38261;54.090;13.382;2023-04-01T02:52:43;6.13;;;3.83;;
52320;SDS011;38261;54.090;13.382;2023-04-01T02:54:05;6.70;;;4.80;;
52320;SDS011;38261;54.090;13.382;2023-04-01T02:55:27;10.50;;;3.93;;
52320;SDS011;38261;54.090;13.382;2023-04-01T02:56:49;14.80;;;4.50;;
52320;SDS011;38261;54.090;13.382;2023-04-01T02:58:11;10.73;;;4.70;;
52320;SDS011;38261;54.090;13.382;2023-04-01T02:59:34;12.13;;;4.53;;
52320;SDS011;38261;54.090;13.382;2023-04-01T03:00:56;14.43;;;4.90;;
52320;SDS011;38261;54.090;13.382;2023-04-01T03:02:18;9.80;;;4.57;;
52320;SDS011;38261;54.090;13.382;2023-04-01T03:03:40;10.20;;;4.90;;
52320;SDS011;38261;54.090;13.382;2023-04-01T03:05:02;7.60;;;4.40;;
52320;SDS011;38261;54.090;13.382;2023-04-01T03:06:25;11.30;;;4.00;;
52320;SDS011;38261;54.090;13.382;2023-04-01T03:07:47;11.20;;;4.57;;
52320;SDS011;38261;54.090;13.382;2023-04-01T03:09:09;15.53;;;4.83;;
52320;SDS011;38261;54.090;13.382;2023-04-01T03:10:32;7.23;;;3.93;;
52320;SDS011;38261;54.090;13.382;2023-04-01T03:11:54;5.67;;;3.57;;
52320;SDS011;38261;54.090;13.382;2023-04-01T03:13:16;10.70;;;4.20;;
52320;SDS011;38261;54.090;13.382;2023-04-01T03:14:38;7.97;;;4.07;;
52320;SDS011;38261;54.090;13.382;2023-04-01T03:16:00;11.60;;;4.73;;
52320;SDS011;38261;54.090;13.382;2023-04-01T03:17:22;10.23;;;4.57;;
52320;SDS011;38261;54.090;13.382;2023-04-01T03:18:44;13.60;;;5.10;;
52320;SDS011;38261;54.090;13.382;2023-04-01T03:20:07;12.47;;;5.00;;
52320;SDS011;38261;54.090;13.382;2023-04-01T03:21:30;11.87;;;5.60;;
52320;SDS011;38261;54.090;13.382;2023-04-01T03:22:52;12.63;;;4.90;;
52320;SDS011;38261;54.090;13.382;2023-04-01T03:24:14;12.67;;;5.93;;
52320;SDS011;38261;54.090;13.382;2023-04-01T03:25:36;11.23;;;5.00;;
52320;SDS011;38261;54.090;13.382;2023-04-01T03:26:58;10.90;;;4.47;;
52320;SDS011;38261;54.090;13.382;2023-04-01T03:28:21;9.40;;;4.77;;
52320;SDS011;38261;54.090;13.382;2023-04-01T03:29:43;9.93;;;4.50;;
52320;SDS011;38261;54.090;13.382;2023-04-01T03:31:05;6.80;;;4.33;;
52320;SDS011;38261;54.090;13.382;2023-04-01T03:32:27;12.17;;;4.43;;
52320;SDS011;38261;54.090;13.382;2023-04-01T03:33:50;8.30;;;4.47;;
52320;SDS011;38261;54.090;13.382;2023-04-01T03:35:12;10.93;;;4.60;;
52320;SDS011;38261;54.090;13.382;2023-04-01T03:36:34;10.73;;;4.73;;
52320;SDS011;38261;54.090;13.382;2023-04-01T03:37:56;12.43;;;5.40;;
52320;SDS011;38261;54.090;13.382;2023-04-01T03:39:18;8.90;;;5.20;;
52320;SDS011;38261;54.090;13.382;2023-04-01T03:40:42;12.93;;;5.07;;
52320;SDS011;38261;54.090;13.382;2023-04-01T03:42:04;10.13;;;5.50;;
52320;SDS011;38261;54.090;13.382;2023-04-01T03:43:28;12.00;;;6.40;;
52320;SDS011;38261;54.090;13.382;2023-04-01T03:44:50;12.37;;;5.40;;
52320;SDS011;38261;54.090;13.382;2023-04-01T03:46:16;9.93;;;5.57;;
52320;SDS011;38261;54.090;13.382;2023-04-01T03:47:39;7.93;;;4.80;;
52320;SDS011;38261;54.090;13.382;2023-04-01T03:49:02;11.07;;;4.60;;
52320;SDS011;38261;54.090;13.382;2023-04-01T03:50:24;13.53;;;6.10;;
52320;SDS011;38261;54.090;13.382;2023-04-01T03:51:46;11.83;;;6.70;;
52320;SDS011;38261;54.090;13.382;2023-04-01T03:53:08;9.50;;;4.90;;
52320;SDS011;38261;54.090;13.382;2023-04-01T03:54:30;10.47;;;5.00;;
52320;SDS011;38261;54.090;13.382;2023-04-01T03:55:53;9.40;;;5.33;;
52320;SDS011;38261;54.090;13.382;2023-04-01T03:57:15;11.70;;;5.33;;
52320;SDS011;38261;54.090;13.382;2023-04-01T03:58:38;7.10;;;5.00;;
52320;SDS011;38261;54.090;13.382;2023-04-01T04:00:00;8.37;;;4.63;;
52320;SDS011;38261;54.090;13.382;2023-04-01T04:01:22;11.13;;;6.07;;
52320;SDS011;38261;54.090;13.382;2023-04-01T04:02:45;12.77;;;5.00;;
52320;SDS011;38261;54.090;13.382;2023-04-01T04:04:07;10.17;;;5.53;;
52320;SDS011;38261;54.090;13.382;2023-04-01T04:05:31;11.60;;;5.07;;
52320;SDS011;38261;54.090;13.382;2023-04-01T04:06:54;11.20;;;4.93;;
52320;SDS011;38261;54.090;13.382;2023-04-01T04:08:16;11.03;;;5.40;;
52320;SDS011;38261;54.090;13.382;2023-04-01T04:09:39;14.27;;;5.00;;
52320;SDS011;38261;54.090;13.382;2023-04-01T04:11:01;8.70;;;4.47;;
52320;SDS011;38261;54.090;13.382;2023-04-01T04:12:23;14.23;;;5.20;;
52320;SDS011;38261;54.090;13.382;2023-04-01T04:13:45;8.70;;;5.17;;
52320;SDS011;38261;54.090;13.382;2023-04-01T04:15:09;8.70;;;5.53;;
52320;SDS011;38261;54.090;13.382;2023-04-01T04:16:31;23.20;;;6.57;;
52320;SDS011;38261;54.090;13.382;2023-04-01T04:17:58;10.60;;;5.43;;
52320;SDS011;38261;54.090;13.382;2023-04-01T04:19:20;13.77;;;5.83;;
52320;SDS011;38261;54.090;13.382;2023-04-01T04:20:45;16.70;;;5.90;;
52320;SDS011;38261;54.090;13.382;2023-04-01T04:22:12;10.40;;;6.40;;
52320;SDS011;38261;54.090;13.382;2023-04-01T04:23:34;9.37;;;5.60;;
52320;SDS011;38261;54.090;13.382;2023-04-01T04:24:58;11.83;;;5.90;;
52320;SDS011;38261;54.090;13.382;2023-04-01T04:26:20;8.47;;;5.50;;
52320;SDS011;38261;54.090;13.382;2023-04-01T04:27:43;12.17;;;5.73;;
52320;SDS011;38261;54.090;13.382;2023-04-01T04:29:05;16.03;;;7.00;;
52320;SDS011;38261;54.090;13.382;2023-04-01T04:30:27;14.00;;;5.40;;
52320;SDS011;38261;54.090;13.382;2023-04-01T04:31:49;9.47;;;4.43;;
52320;SDS011;38261;54.090;13.382;2023-04-01T04:33:11;17.10;;;5.00;;
52320;SDS011;38261;54.090;13.382;2023-04-01T04:34:33;12.87;;;5.70;;
52320;SDS011;38261;54.090;13.382;2023-04-01T04:35:56;11.27;;;5.27;;
52320;SDS011;38261;54.090;13.382;2023-04-01T04:37:19;7.03;;;4.70;;
52320;SDS011;38261;54.090;13.382;2023-04-01T04:38:41;6.50;;;4.47;;
52320;SDS011;38261;54.090;13.382;2023-04-01T04:40:03;11.03;;;4.13;;
52320;SDS011;38261;54.090;13.382;2023-04-01T04:41:26;8.63;;;4.33;;
52320;SDS011;38261;54.090;13.382;2023-04-01T04:42:48;5.60;;;3.57;;
52320;SDS011;38261;54.090;13.382;2023-04-01T04:44:10;10.30;;;4.70;;
52320;SDS011;38261;54.090;13.382;2023-04-01T04:45:32;5.73;;;3.60;;
52320;SDS011;38261;54.090;13.382;2023-04-01T04:46:55;6.83;;;3.10;;
52320;SDS011;38261;54.090;13.382;2023-04-01T04:48:19;8.40;;;4.20;;
52320;SDS011;38261;54.090;13.382;2023-04-01T04:49:41;4.90;;;3.17;;
52320;SDS011;38261;54.090;13.382;2023-04-01T04:51:03;7.37;;;3.63;;
52320;SDS011;38261;54.090;13.382;2023-04-01T04:52:26;3.77;;;2.90;;
52320;SDS011;38261;54.090;13.382;2023-04-01T04:53:48;4.20;;;2.67;;
52320;SDS011;38261;54.090;13.382;2023-04-01T04:55:13;5.03;;;3.43;;
52320;SDS011;38261;54.090;13.382;2023-04-01T04:56:36;6.13;;;3.90;;
52320;SDS011;38261;54.090;13.382;2023-04-01T04:57:58;8.63;;;4.10;;
52320;SDS011;38261;54.090;13.382;2023-04-01T04:59:20;10.03;;;3.60;;
52320;SDS011;38261;54.090;13.382;2023-04-01T05:00:42;11.37;;;4.23;;
52320;SDS011;38261;54.090;13.382;2023-04-01T05:02:04;5.60;;;3.60;;
52320;SDS011;38261;54.090;13.382;2023-04-01T05:03:26;7.40;;;4.07;;
52320;SDS011;38261;54.090;13.382;2023-04-01T05:04:49;10.30;;;3.63;;
52320;SDS011;38261;54.090;13.382;2023-04-01T05:06:11;7.83;;;3.93;;
52320;SDS011;38261;54.090;13.382;2023-04-01T05:07:35;8.20;;;3.60;;
52320;SDS011;38261;54.090;13.382;2023-04-01T05:08:57;7.23;;;3.27;;
52320;SDS011;38261;54.090;13.382;2023-04-01T05:10:19;9.33;;;3.67;;
52320;SDS011;38261;54.090;13.382;2023-04-01T05:11:42;11.20;;;3.90;;
52320;SDS011;38261;54.090;13.382;2023-04-01T05:13:04;9.43;;;3.50;;
52320;SDS011;38261;54.090;13.382;2023-04-01T05:14:26;9.00;;;3.50;;
52320;SDS011;38261;54.090;13.382;2023-04-01T05:15:48;6.70;;;3.67;;
52320;SDS011;38261;54.090;13.382;2023-04-01T05:17:10;11.90;;;3.90;;
52320;SDS011;38261;54.090;13.382;2023-04-01T05:18:33;7.03;;;2.53;;
52320;SDS011;38261;54.090;13.382;2023-04-01T05:19:56;5.87;;;3.33;;
52320;SDS011;38261;54.090;13.382;2023-04-01T05:21:18;9.70;;;3.77;;
52320;SDS011;38261;54.090;13.382;2023-04-01T05:22:41;3.93;;;2.93;;
52320;SDS011;38261;54.090;13.382;2023-04-01T05:24:07;10.07;;;3.00;;
52320;SDS011;38261;54.090;13.382;2023-04-01T05:25:30;6.43;;;2.30;;
52320;SDS011;38261;54.090;13.382;2023-04-01T05:26:53;4.63;;;2.30;;
52320;SDS011;38261;54.090;13.382;2023-04-01T05:28:17;5.80;;;2.90;;
52320;SDS011;38261;54.090;13.382;2023-04-01T05:29:40;7.33;;;2.80;;
52320;SDS011;38261;54.090;13.382;2023-04-01T05:31:02;4.03;;;2.53;;
52320;SDS011;38261;54.090;13.382;2023-04-01T05:32:25;6.23;;;2.23;;
52320;SDS011;38261;54.090;13.382;2023-04-01T05:33:47;4.50;;;2.67;;
52320;SDS011;38261;54.090;13.382;2023-04-01T05:35:09;13.00;;;2.50;;
52320;SDS011;38261;54.090;13.382;2023-04-01T05:36:32;5.97;;;2.27;;
52320;SDS011;38261;54.090;13.382;2023-04-01T05:37:54;4.63;;;2.43;;
52320;SDS011;38261;54.090;13.382;2023-04-01T05:39:16;5.30;;;2.43;;
52320;SDS011;38261;54.090;13.382;2023-04-01T05:40:38;6.20;;;3.53;;
52320;SDS011;38261;54.090;13.382;2023-04-01T05:42:00;10.40;;;2.70;;
52320;SDS011;38261;54.090;13.382;2023-04-01T05:43:22;9.80;;;2.90;;
52320;SDS011;38261;54.090;13.382;2023-04-01T05:44:44;4.80;;;2.60;;
52320;SDS011;38261;54.090;13.382;2023-04-01T05:46:06;6.17;;;3.00;;
52320;SDS011;38261;54.090;13.382;2023-04-01T05:47:28;7.77;;;2.63;;
52320;SDS011;38261;54.090;13.382;2023-04-01T05:48:51;10.63;;;2.83;;
52320;SDS011;38261;54.090;13.382;2023-04-01T05:50:13;5.60;;;2.70;;
52320;SDS011;38261;54.090;13.382;2023-04-01T05:51:35;3.37;;;2.30;;
52320;SDS011;38261;54.090;13.382;2023-04-01T05:52:57;10.27;;;3.07;;
52320;SDS011;38261;54.090;13.382;2023-04-01T05:54:19;5.33;;;3.03;;
52320;SDS011;38261;54.090;13.382;2023-04-01T05:55:41;5.33;;;2.67;;
52320;SDS011;38261;54.090;13.382;2023-04-01T05:57:04;10.23;;;3.00;;
52320;SDS011;38261;54.090;13.382;2023-04-01T05:58:26;4.00;;;2.37;;
52320;SDS011;38261;54.090;13.382;2023-04-01T05:59:48;5.77;;;3.13;;
52320;SDS011;38261;54.090;13.382;2023-04-01T06:01:10;12.00;;;3.00;;
52320;SDS011;38261;54.090;13.382;2023-04-01T06:02:37;7.50;;;2.80;;
52320;SDS011;38261;54.090;13.382;2023-04-01T06:04:00;5.87;;;3.10;;
52320;SDS011;38261;54.090;13.382;2023-04-01T06:05:23;4.20;;;2.63;;
52320;SDS011;38261;54.090;13.382;2023-04-01T06:06:49;10.93;;;3.00;;
52320;SDS011;38261;54.090;13.382;2023-04-01T06:08:13;3.70;;;2.60;;
52320;SDS011;38261;54.090;13.382;2023-04-01T06:09:41;4.83;;;2.73;;
52320;SDS011;38261;54.090;13.382;2023-04-01T06:11:07;7.90;;;3.00;;
52320;SDS011;38261;54.090;13.382;2023-04-01T06:16:19;6.10;;;3.60;;
52320;SDS011;38261;54.090;13.382;2023-04-01T06:31:16;8.40;;;3.10;;
52320;SDS011;38261;54.090;13.382;2023-04-01T06:49:52;4.90;;;3.97;;
52320;SDS011;38261;54.090;13.382;2023-04-01T06:54:52;13.30;;;4.30;;
52320;SDS011;38261;54.090;13.382;2023-04-01T06:56:23;8.80;;;4.00;;
52320;SDS011;38261;54.090;13.382;2023-04-01T06:57:48;13.07;;;6.27;;
52320;SDS011;38261;54.090;13.382;2023-04-01T06:59:18;13.53;;;4.60;;
52320;SDS011;38261;54.090;13.382;2023-04-01T07:00:44;14.57;;;4.60;;
52320;SDS011;38261;54.090;13.382;2023-04-01T07:05:11;11.83;;;5.47;;
52320;SDS011;38261;54.090;13.382;2023-04-01T07:06:36;9.23;;;4.53;;
52320;SDS011;38261;54.090;13.382;2023-04-01T07:08:06;11.20;;;5.33;;
52320;SDS011;38261;54.090;13.382;2023-04-01T07:09:35;9.33;;;5.10;;
52320;SDS011;38261;54.090;13.382;2023-04-01T07:11:02;16.20;;;6.40;;
52320;SDS011;38261;54.090;13.382;2023-04-01T07:12:34;9.70;;;5.27;;
52320;SDS011;38261;54.090;13.382;2023-04-01T07:14:06;11.80;;;4.93;;
52320;SDS011;38261;54.090;13.382;2023-04-01T07:15:35;13.70;;;5.00;;
52320;SDS011;38261;54.090;13.382;2023-04-01T07:17:04;14.33;;;5.10;;
52320;SDS011;38261;54.090;13.382;2023-04-01T07:18:30;14.90;;;5.07;;
52320;SDS011;38261;54.090;13.382;2023-04-01T07:20:11;9.83;;;4.60;;
52320;SDS011;38261;54.090;13.382;2023-04-01T07:21:48;16.77;;;4.60;;
52320;SDS011;38261;54.090;13.382;2023-04-01T07:23:20;7.13;;;4.30;;
52320;SDS011;38261;54.090;13.382;2023-04-01T07:24:44;11.07;;;5.00;;
52320;SDS011;38261;54.090;13.382;2023-04-01T07:26:20;12.67;;;4.40;;
52320;SDS011;38261;54.090;13.382;2023-04-01T07:27:44;10.20;;;4.23;;
52320;SDS011;38261;54.090;13.382;2023-04-01T07:29:11;13.03;;;5.33;;
52320;SDS011;38261;54.090;13.382;2023-04-01T07:32:47;16.00;;;4.17;;
52320;SDS011;38261;54.090;13.382;2023-04-01T07:35:51;12.10;;;4.10;;
52320;SDS011;38261;54.090;13.382;2023-04-01T07:47:34;6.33;;;3.30;;
52320;SDS011;38261;54.090;13.382;2023-04-01T07:52:54;13.07;;;5.80;;
52320;SDS011;38261;54.090;13.382;2023-04-01T07:56:33;12.83;;;4.03;;
52320;SDS011;38261;54.090;13.382;2023-04-01T07:58:10;8.73;;;4.00;;
52320;SDS011;38261;54.090;13.382;2023-04-01T08:01:29;7.80;;;3.63;;
52320;SDS011;38261;54.090;13.382;2023-04-01T08:09:36;6.77;;;4.23;;
52320;SDS011;38261;54.090;13.382;2023-04-01T08:11:25;7.87;;;4.10;;
52320;SDS011;38261;54.090;13.382;2023-04-01T08:15:26;9.77;;;3.93;;
52320;SDS011;38261;54.090;13.382;2023-04-01T08:16:59;7.13;;;3.90;;
52320;SDS011;38261;54.090;13.382;2023-04-01T08:18:54;9.93;;;4.17;;
52320;SDS011;38261;54.090;13.382;2023-04-01T08:21:51;13.10;;;4.50;;
52320;SDS011;38261;54.090;13.382;2023-04-01T08:23:17;7.17;;;4.03;;
52320;SDS011;38261;54.090;13.382;2023-04-01T08:24:54;11.07;;;4.80;;
52320;SDS011;38261;54.090;13.382;2023-04-01T08:26:28;7.33;;;3.30;;
52320;SDS011;38261;54.090;13.382;2023-04-01T08:28:15;12.90;;;4.27;;
52320;SDS011;38261;54.090;13.382;2023-04-01T08:29:48;11.17;;;3.90;;
52320;SDS011;38261;54.090;13.382;2023-04-01T08:33:12;11.07;;;3.50;;
52320;SDS011;38261;54.090;13.382;2023-04-01T08:34:39;6.90;;;3.80;;
52320;SDS011;38261;54.090;13.382;2023-04-01T08:36:08;10.60;;;3.60;;
52320;SDS011;38261;54.090;13.382;2023-04-01T08:37:40;13.33;;;4.67;;
52320;SDS011;38261;54.090;13.382;2023-04-01T08:40:35;7.80;;;3.33;;
52320;SDS011;38261;54.090;13.382;2023-04-01T08:55:43;7.03;;;3.60;;
52320;SDS011;38261;54.090;13.382;2023-04-01T08:59:21;8.30;;;4.20;;
52320;SDS011;38261;54.090;13.382;2023-04-01T09:01:25;8.13;;;3.43;;
52320;SDS011;38261;54.090;13.382;2023-04-01T09:05:40;19.63;;;3.80;;
52320;SDS011;38261;54.090;13.382;2023-04-01T09:27:29;11.83;;;3.70;;
52320;SDS011;38261;54.090;13.382;2023-04-01T09:31:10;6.93;;;3.37;;
52320;SDS011;38261;54.090;13.382;2023-04-01T09:36:28;5.90;;;3.20;;
52320;SDS011;38261;54.090;13.382;2023-04-01T09:39:37;8.10;;;3.60;;
52320;SDS011;38261;54.090;13.382;2023-04-01T09:44:27;13.23;;;3.43;;
52320;SDS011;38261;54.090;13.382;2023-04-01T09:45:57;9.93;;;3.00;;
52320;SDS011;38261;54.090;13.382;2023-04-01T09:56:02;8.10;;;2.73;;
52320;SDS011;38261;54.090;13.382;2023-04-01T10:08:11;14.40;;;3.97;;
52320;SDS011;38261;54.090;13.382;2023-04-01T10:16:42;8.40;;;3.10;;
52320;SDS011;38261;54.090;13.382;2023-04-01T10:26:09;8.90;;;3.77;;
52320;SDS011;38261;54.090;13.382;2023-04-01T10:31:02;8.50;;;3.00;;
52320;SDS011;38261;54.090;13.382;2023-04-01T10:32:50;6.10;;;3.00;;
52320;SDS011;38261;54.090;13.382;2023-04-01T10:40:58;8.37;;;2.90;;
52320;SDS011;38261;54.090;13.382;2023-04-01T10:46:51;7.23;;;2.83;;
52320;SDS011;38261;54.090;13.382;2023-04-01T11:23:42;12.60;;;2.70;;
52320;SDS011;38261;54.090;13.382;2023-04-01T11:37:23;6.47;;;2.97;;
52320;SDS011;38261;54.090;13.382;2023-04-01T11:38:52;12.50;;;3.80;;
52320;SDS011;38261;54.090;13.382;2023-04-01T11:48:32;3.00;;;2.43;;
52320;SDS011;38261;54.090;13.382;2023-04-01T12:02:33;7.83;;;2.53;;
52320;SDS011;38261;54.090;13.382;2023-04-01T12:11:17;7.70;;;2.40;;
52320;SDS011;38261;54.090;13.382;2023-04-01T12:20:33;5.80;;;2.53;;
52320;SDS011;38261;54.090;13.382;2023-04-01T12:27:29;6.80;;;2.37;;
52320;SDS011;38261;54.090;13.382;2023-04-01T12:32:35;7.07;;;2.37;;
52320;SDS011;38261;54.090;13.382;2023-04-01T12:41:03;5.87;;;1.93;;
52320;SDS011;38261;54.090;13.382;2023-04-01T12:48:10;6.20;;;2.40;;
52320;SDS011;38261;54.090;13.382;2023-04-01T12:56:32;5.40;;;2.17;;
52320;SDS011;38261;54.090;13.382;2023-04-01T12:58:36;7.23;;;2.40;;
52320;SDS011;38261;54.090;13.382;2023-04-01T13:05:10;7.50;;;2.37;;
52320;SDS011;38261;54.090;13.382;2023-04-01T13:10:20;4.27;;;1.90;;
52320;SDS011;38261;54.090;13.382;2023-04-01T13:14:11;4.60;;;2.07;;
52320;SDS011;38261;54.090;13.382;2023-04-01T13:15:54;4.53;;;1.93;;
52320;SDS011;38261;54.090;13.382;2023-04-01T13:21:21;6.30;;;2.43;;
52320;SDS011;38261;54.090;13.382;2023-04-01T13:24:29;6.53;;;1.93;;
52320;SDS011;38261;54.090;13.382;2023-04-01T13:27:39;5.20;;;2.40;;
52320;SDS011;38261;54.090;13.382;2023-04-01T13:29:15;4.87;;;2.47;;
52320;SDS011;38261;54.090;13.382;2023-04-01T13:33:47;5.53;;;2.20;;
52320;SDS011;38261;54.090;13.382;2023-04-01T13:35:34;6.10;;;2.13;;
52320;SDS011;38261;54.090;13.382;2023-04-01T13:40:33;7.50;;;2.53;;
52320;SDS011;38261;54.090;13.382;2023-04-01T13:42:26;6.00;;;2.27;;
52320;SDS011;38261;54.090;13.382;2023-04-01T13:44:09;7.70;;;3.00;;
52320;SDS011;38261;54.090;13.382;2023-04-01T13:58:20;8.37;;;3.33;;
52320;SDS011;38261;54.090;13.382;2023-04-01T14:01:55;16.33;;;3.30;;
52320;SDS011;38261;54.090;13.382;2023-04-01T14:12:58;6.40;;;2.23;;
52320;SDS011;38261;54.090;13.382;2023-04-01T14:14:48;8.57;;;3.47;;
52320;SDS011;38261;54.090;13.382;2023-04-01T14:21:33;4.13;;;2.30;;
52320;SDS011;38261;54.090;13.382;2023-04-01T14:29:40;4.97;;;2.00;;
52320;SDS011;38261;54.090;13.382;2023-04-01T14:32:51;6.53;;;1.87;;
52320;SDS011;38261;54.090;13.382;2023-04-01T14:42:13;6.30;;;1.87;;
52320;SDS011;38261;54.090;13.382;2023-04-01T14:48:57;6.70;;;1.80;;
52320;SDS011;38261;54.090;13.382;2023-04-01T14:50:45;3.83;;;1.70;;
52320;SDS011;38261;54.090;13.382;2023-04-01T14:53:44;1.83;;;1.57;;
52320;SDS011;38261;54.090;13.382;2023-04-01T15:08:04;6.27;;;1.90;;
52320;SDS011;38261;54.090;13.382;2023-04-01T15:13:02;3.77;;;2.77;;